Portsmouth, United Kingdom
Current Conditions -  °F | °C
As of 9:50 PM on Sunday 21 Dec 2014 (Local Time) from EGHI Reporting Station
Rain Showers Rain Showers  
Wind Chill: 52°   Ceiling: 1400
Heat Index: 52°   Visibility: 6mi
Dew Point: 48°   Wind: 16mph
Humidity: 88%   Direction: 240°WSW
Pressure: 30.24"   Gusts: NA
Location:  50.8°N, 1.09°W
Report Text: EGHI 212150Z 24014KT 9000 VCSH SCT012 BKN014 11/09 Q1024
Loading
Personal Weather Stations






























Interactive Weather Map New forecast layout! Learn more

10-Day Weather Forecast

Advertisements
Track Severe Weather on mobile